createdAt,value
2018-12-11T00:01:33.491Z,2.10
2018-12-11T00:04:04.416Z,2.10
2018-12-11T00:06:32.595Z,2.10
2018-12-11T00:09:02.932Z,2.10
2018-12-11T00:11:33.970Z,2.10
2018-12-11T00:14:03.234Z,2.10
2018-12-11T00:16:31.437Z,2.10
2018-12-11T00:18:59.715Z,2.10
2018-12-11T00:21:28.908Z,2.10
2018-12-11T00:23:57.319Z,2.00
2018-12-11T00:26:25.572Z,2.00
2018-12-11T00:28:54.364Z,2.00
2018-12-11T00:31:22.632Z,1.90
2018-12-11T00:33:51.315Z,2.00
2018-12-11T00:36:19.546Z,2.00
2018-12-11T00:38:48.158Z,2.00
2018-12-11T00:41:16.310Z,2.00
2018-12-11T00:43:45.462Z,2.10
2018-12-11T00:46:13.783Z,2.10
2018-12-11T00:48:41.948Z,2.20
2018-12-11T00:51:10.122Z,2.20
2018-12-11T00:53:38.422Z,2.20
2018-12-11T00:56:08.407Z,2.30
2018-12-11T00:58:37.515Z,2.30
2018-12-11T01:01:06.127Z,2.30
2018-12-11T01:03:34.684Z,2.40
2018-12-11T01:06:04.522Z,2.40
2018-12-11T01:08:33.850Z,2.40
2018-12-11T01:11:06.733Z,2.50
2018-12-11T01:13:35.096Z,2.40
2018-12-11T01:16:07.422Z,2.40
2018-12-11T01:18:36.517Z,2.40
2018-12-11T01:21:04.759Z,2.30
2018-12-11T01:23:32.975Z,2.30
2018-12-11T01:26:04.688Z,2.30
2018-12-11T01:28:39.563Z,2.30
2018-12-11T01:31:07.943Z,2.30
2018-12-11T01:33:36.087Z,2.40
2018-12-11T01:36:07.267Z,2.40
2018-12-11T01:38:35.446Z,2.40
2018-12-11T01:41:03.838Z,2.50
2018-12-11T01:43:32.018Z,2.50
2018-12-11T01:46:00.186Z,2.50
2018-12-11T01:48:28.391Z,2.50
2018-12-11T01:50:56.611Z,2.50
2018-12-11T01:53:24.942Z,2.40
2018-12-11T01:55:53.086Z,2.50
2018-12-11T01:58:21.235Z,2.50
2018-12-11T02:00:50.374Z,2.60
2018-12-11T02:03:19.444Z,2.60
2018-12-11T02:05:47.642Z,2.60
2018-12-11T02:08:15.840Z,2.50
2018-12-11T02:10:44.416Z,2.50
2018-12-11T02:13:12.643Z,2.30
2018-12-11T02:15:40.806Z,2.30
2018-12-11T02:18:08.957Z,2.30
2018-12-11T02:20:37.201Z,2.20
2018-12-11T02:23:05.416Z,2.20
2018-12-11T02:25:33.575Z,2.20
2018-12-11T02:28:05.054Z,2.20
2018-12-11T02:30:33.260Z,2.20
2018-12-11T02:33:04.224Z,2.30
2018-12-11T02:35:32.704Z,2.30
2018-12-11T02:40:34.757Z,2.40
2018-12-11T02:43:08.030Z,2.40
2018-12-11T02:45:36.246Z,2.50
2018-12-11T02:48:04.930Z,2.60
2018-12-11T02:50:33.153Z,2.60
2018-12-11T02:53:06.603Z,2.70
2018-12-11T02:55:34.883Z,2.70
2018-12-11T02:58:06.751Z,2.70
2018-12-11T03:00:34.975Z,2.60
2018-12-11T03:03:04.404Z,2.70
2018-12-11T03:05:32.914Z,2.70
2018-12-11T03:08:03.331Z,2.70
2018-12-11T03:10:31.475Z,2.70
2018-12-11T03:13:00.346Z,2.60
2018-12-11T03:15:28.558Z,2.60
2018-12-11T03:17:57.254Z,2.60
2018-12-11T03:20:25.443Z,2.50
2018-12-11T03:22:55.929Z,2.50
2018-12-11T03:25:24.078Z,2.40
2018-12-11T03:27:52.938Z,2.30
2018-12-11T03:30:21.188Z,2.20
2018-12-11T03:32:49.441Z,2.10
2018-12-11T03:35:17.665Z,2.10
2018-12-11T03:37:46.035Z,2.10
2018-12-11T03:40:14.528Z,2.10
2018-12-11T03:42:42.811Z,2.20
2018-12-11T03:45:11.066Z,2.30
2018-12-11T03:47:39.219Z,2.40
2018-12-11T03:50:08.138Z,2.40
2018-12-11T03:52:36.441Z,2.40
2018-12-11T03:55:06.407Z,2.40
2018-12-11T03:57:34.619Z,2.40
2018-12-11T04:00:08.074Z,2.40
2018-12-11T04:02:36.303Z,2.40
2018-12-11T04:05:07.876Z,2.50
2018-12-11T04:07:36.384Z,2.40
2018-12-11T04:10:07.747Z,2.40
2018-12-11T04:12:35.918Z,2.50
2018-12-11T04:15:06.681Z,2.50
2018-12-11T04:17:34.891Z,2.60
2018-12-11T04:20:06.578Z,2.50
2018-12-11T04:22:34.750Z,2.50
2018-12-11T04:25:07.267Z,2.50
2018-12-11T04:27:35.529Z,2.40
2018-12-11T04:30:07.794Z,2.40
2018-12-11T04:32:35.960Z,2.50
2018-12-11T04:35:05.323Z,2.60
2018-12-11T04:37:33.543Z,2.60
2018-12-11T04:40:02.730Z,2.60
2018-12-11T04:42:31.870Z,2.50
2018-12-11T04:45:00.213Z,2.60
2018-12-11T04:47:28.414Z,2.60
2018-12-11T04:49:56.565Z,2.60
2018-12-11T04:52:24.698Z,2.60
2018-12-11T04:54:52.985Z,2.60
2018-12-11T04:57:21.126Z,2.60
2018-12-11T04:59:49.646Z,2.60
2018-12-11T05:02:17.870Z,2.60
2018-12-11T05:07:20.743Z,2.70
2018-12-11T05:09:49.078Z,2.70
2018-12-11T05:12:17.346Z,2.70
2018-12-11T05:14:45.567Z,2.70
2018-12-11T05:17:13.771Z,2.80
2018-12-11T05:19:42.024Z,2.80
2018-12-11T05:22:10.296Z,2.80
2018-12-11T05:24:38.478Z,2.70
2018-12-11T05:27:06.930Z,2.80
2018-12-11T05:29:35.307Z,2.80
2018-12-11T05:32:04.353Z,2.80
2018-12-11T05:34:32.487Z,2.80
2018-12-11T05:37:04.127Z,2.70
2018-12-11T05:39:32.302Z,2.60
2018-12-11T05:42:00.535Z,2.60
2018-12-11T05:44:29.062Z,2.50
2018-12-11T05:46:57.372Z,2.50
2018-12-11T05:49:25.685Z,2.50
2018-12-11T05:51:53.866Z,2.50
2018-12-11T05:54:22.039Z,2.50
2018-12-11T05:56:50.434Z,2.50
2018-12-11T05:59:19.081Z,2.50
2018-12-11T06:01:47.258Z,2.60
2018-12-11T06:04:15.579Z,2.50
2018-12-11T06:06:43.833Z,2.50
2018-12-11T06:09:12.091Z,2.40
2018-12-11T06:11:40.304Z,2.40
2018-12-11T06:14:08.659Z,2.40
2018-12-11T06:16:37.410Z,2.40
2018-12-11T06:19:05.610Z,2.40
2018-12-11T06:21:34.834Z,2.40
2018-12-11T06:24:04.974Z,2.50
2018-12-11T06:26:33.155Z,2.40
2018-12-11T06:29:07.042Z,2.30
2018-12-11T06:31:35.222Z,2.30
2018-12-11T06:34:04.401Z,2.30
2018-12-11T06:36:33.075Z,2.20
2018-12-11T06:39:04.349Z,2.20
2018-12-11T06:41:32.641Z,2.20
2018-12-11T06:44:05.195Z,2.20
2018-12-11T06:46:33.402Z,2.20
2018-12-11T06:49:04.842Z,2.10
2018-12-11T06:51:33.194Z,2.10
2018-12-11T06:54:02.806Z,2.10
2018-12-11T06:56:31.011Z,2.20
2018-12-11T06:58:59.255Z,2.30
2018-12-11T07:01:27.474Z,2.30
2018-12-11T07:03:55.642Z,2.40
2018-12-11T07:06:23.862Z,2.40
2018-12-11T07:08:52.238Z,2.50
2018-12-11T07:11:20.748Z,2.50
2018-12-11T07:13:49.174Z,2.60
2018-12-11T07:16:17.342Z,2.60
2018-12-11T07:18:45.868Z,2.60
2018-12-11T07:21:14.054Z,2.60
2018-12-11T07:23:42.256Z,2.60
2018-12-11T07:26:10.417Z,2.60
2018-12-11T07:28:39.526Z,2.60
2018-12-11T07:31:07.792Z,2.50
2018-12-11T07:33:36.046Z,2.50
2018-12-11T07:36:05.068Z,2.30
2018-12-11T07:38:34.689Z,2.20
2018-12-11T07:41:03.995Z,2.20
2018-12-11T07:43:32.952Z,2.20
2018-12-11T07:46:01.910Z,2.10
2018-12-11T07:48:30.727Z,2.10
2018-12-11T07:50:59.663Z,2.10
2018-12-11T07:53:27.830Z,2.10
2018-12-11T07:56:00.125Z,2.00
2018-12-11T07:58:26.218Z,2.00
2018-12-11T08:00:54.383Z,2.00
2018-12-11T08:03:22.686Z,2.00
2018-12-11T08:05:50.858Z,2.00
2018-12-11T08:08:19.072Z,2.10
2018-12-11T08:10:47.303Z,2.30
2018-12-11T08:13:15.543Z,2.30
2018-12-11T08:15:43.719Z,2.40
2018-12-11T08:18:11.890Z,2.50
2018-12-11T08:20:41.102Z,2.60
2018-12-11T08:23:09.385Z,2.70
2018-12-11T08:25:37.627Z,2.80
2018-12-11T08:28:09.488Z,2.80
2018-12-11T08:30:37.763Z,2.90
2018-12-11T08:33:07.956Z,3.00
2018-12-11T08:35:36.125Z,3.00
2018-12-11T08:38:04.962Z,3.00
2018-12-11T08:40:33.144Z,3.00
2018-12-11T08:43:02.370Z,3.00
2018-12-11T08:45:30.556Z,2.90
2018-12-11T08:47:58.774Z,2.90
2018-12-11T08:50:27.058Z,3.10
2018-12-11T08:52:55.294Z,3.20
2018-12-11T08:55:23.480Z,3.10
2018-12-11T08:57:51.628Z,2.80
2018-12-11T09:00:20.678Z,2.80
2018-12-11T09:02:48.854Z,2.70
2018-12-11T09:05:17.082Z,2.70
2018-12-11T09:07:45.274Z,2.80
2018-12-11T09:10:13.664Z,2.80
2018-12-11T09:12:41.885Z,2.80
2018-12-11T09:15:10.278Z,2.80
2018-12-11T09:17:39.417Z,2.90
2018-12-11T09:20:07.793Z,2.80
2018-12-11T09:22:36.023Z,2.70
2018-12-11T09:25:04.667Z,3.30
2018-12-11T09:27:33.162Z,4.30
2018-12-11T09:30:03.865Z,4.00
2018-12-11T09:32:32.371Z,3.60
2018-12-11T09:35:00.595Z,3.60
2018-12-11T09:37:28.782Z,3.70
2018-12-11T09:39:57.486Z,3.60
2018-12-11T09:42:28.015Z,3.60
2018-12-11T09:44:55.891Z,3.50
2018-12-11T09:47:23.999Z,3.60
2018-12-11T09:49:52.233Z,4.60
2018-12-11T09:52:21.318Z,5.60
2018-12-11T09:54:49.499Z,6.30
2018-12-11T09:57:17.995Z,6.70
2018-12-11T09:59:46.803Z,7.10
2018-12-11T10:02:14.942Z,6.80
2018-12-11T10:04:43.219Z,6.00
2018-12-11T10:07:11.399Z,5.30
2018-12-11T10:09:39.586Z,4.70
2018-12-11T10:12:08.654Z,4.40
2018-12-11T10:14:36.794Z,4.20
2018-12-11T10:17:07.226Z,4.10
2018-12-11T10:19:35.402Z,4.00
2018-12-11T10:22:05.055Z,3.80
2018-12-11T10:24:33.226Z,3.90
2018-12-11T10:27:02.865Z,4.10
2018-12-11T10:29:31.135Z,4.20
2018-12-11T10:31:59.384Z,4.30
2018-12-11T10:34:27.513Z,4.20
2018-12-11T10:36:55.751Z,4.10
2018-12-11T10:39:23.901Z,4.00
2018-12-11T10:41:52.367Z,4.10
2018-12-11T10:44:20.594Z,4.00
2018-12-11T10:46:48.739Z,4.00
2018-12-11T10:49:16.914Z,3.90
2018-12-11T10:51:45.048Z,3.90
2018-12-11T10:54:13.215Z,3.90
2018-12-11T10:56:41.370Z,3.70
2018-12-11T10:59:10.327Z,3.70
2018-12-11T11:01:40.598Z,3.90
2018-12-11T11:04:09.000Z,4.10
2018-12-11T11:06:37.251Z,4.10
2018-12-11T11:09:07.511Z,4.10
2018-12-11T11:11:36.154Z,3.80
2018-12-11T11:14:06.291Z,3.90
2018-12-11T11:16:34.635Z,4.00
2018-12-11T11:19:07.100Z,4.10
2018-12-11T11:21:36.271Z,4.20
2018-12-11T11:24:04.811Z,5.10
2018-12-11T11:26:33.116Z,6.00
2018-12-11T11:29:03.242Z,6.30
2018-12-11T11:31:31.407Z,6.90
2018-12-11T11:33:59.579Z,7.40
2018-12-11T11:36:27.799Z,7.20
2018-12-11T11:38:56.030Z,6.60
2018-12-11T11:41:24.257Z,6.30
2018-12-11T11:43:52.669Z,6.60
2018-12-11T11:46:20.909Z,6.40
2018-12-11T11:48:49.038Z,6.30
2018-12-11T11:51:17.210Z,6.60
2018-12-11T11:53:45.438Z,6.70
2018-12-11T11:56:13.685Z,6.60
2018-12-11T11:58:42.144Z,6.20
2018-12-11T12:01:10.601Z,6.00
2018-12-11T12:03:38.794Z,5.50
2018-12-11T12:06:07.475Z,5.00
2018-12-11T12:08:35.663Z,5.10
2018-12-11T12:11:05.173Z,5.20
2018-12-11T12:13:33.358Z,5.10
2018-12-11T12:16:05.013Z,4.90
2018-12-11T12:18:33.572Z,4.80
2018-12-11T12:21:06.375Z,4.90
2018-12-11T12:23:35.516Z,5.00
2018-12-11T12:26:04.074Z,4.90
2018-12-11T12:28:32.331Z,4.60
2018-12-11T12:31:04.554Z,4.50
2018-12-11T12:33:32.683Z,4.40
2018-12-11T12:36:05.235Z,4.60
2018-12-11T12:38:33.492Z,4.80
2018-12-11T12:41:07.208Z,4.70
2018-12-11T12:43:35.391Z,4.70
2018-12-11T12:46:05.784Z,4.70
2018-12-11T12:48:34.077Z,4.80
2018-12-11T12:51:05.562Z,4.90
2018-12-11T12:53:33.818Z,4.80
2018-12-11T12:56:05.575Z,4.50
2018-12-11T12:58:33.782Z,4.40
2018-12-11T13:01:03.791Z,4.40
2018-12-11T13:03:32.018Z,4.40
2018-12-11T13:06:00.304Z,4.40
2018-12-11T13:08:28.454Z,4.30
2018-12-11T13:10:56.689Z,4.30
2018-12-11T13:13:25.325Z,4.20
2018-12-11T13:15:53.849Z,4.00
2018-12-11T13:18:21.977Z,4.00
2018-12-11T13:20:51.115Z,4.00
2018-12-11T13:23:19.363Z,4.00
2018-12-11T13:25:47.650Z,3.90
2018-12-11T13:28:15.819Z,3.90
2018-12-11T13:30:43.997Z,3.90
2018-12-11T13:33:12.264Z,3.90
2018-12-11T13:35:40.518Z,3.80
2018-12-11T13:38:08.798Z,3.80
2018-12-11T13:40:37.502Z,3.70
2018-12-11T13:43:07.050Z,3.80
2018-12-11T13:45:35.207Z,3.90
2018-12-11T13:48:07.415Z,4.00
2018-12-11T13:50:35.566Z,4.20
2018-12-11T13:53:04.115Z,4.10
2018-12-11T13:55:32.367Z,4.00
2018-12-11T13:58:00.494Z,4.00
2018-12-11T14:00:28.694Z,4.00
2018-12-11T14:02:57.616Z,4.00
2018-12-11T14:05:25.762Z,4.10
2018-12-11T14:07:53.917Z,4.00
2018-12-11T14:10:22.082Z,4.00
2018-12-11T14:12:50.240Z,4.00
2018-12-11T14:15:18.500Z,4.00
2018-12-11T14:17:46.706Z,4.10
2018-12-11T14:20:14.959Z,4.10
2018-12-11T14:22:43.131Z,4.30
2018-12-11T14:25:11.474Z,4.30
2018-12-11T14:27:39.634Z,4.10
2018-12-11T14:30:11.205Z,4.10
2018-12-11T14:32:39.763Z,4.10
2018-12-11T14:35:08.165Z,4.00
2018-12-11T14:37:36.414Z,3.90
2018-12-11T14:40:06.130Z,3.90
2018-12-11T14:42:34.366Z,4.00
2018-12-11T14:45:06.225Z,3.80
2018-12-11T14:47:34.991Z,3.70
2018-12-11T14:50:07.470Z,3.80
2018-12-11T14:52:35.734Z,3.70
2018-12-11T14:55:05.722Z,3.70
2018-12-11T14:57:33.952Z,3.70
2018-12-11T15:00:03.027Z,3.60
2018-12-11T15:02:31.281Z,3.50
2018-12-11T15:04:59.884Z,3.40
2018-12-11T15:07:28.372Z,3.20
2018-12-11T15:09:56.540Z,3.20
2018-12-11T15:12:24.975Z,3.10
2018-12-11T15:14:53.154Z,3.00
2018-12-11T15:17:21.359Z,2.90
2018-12-11T15:19:49.563Z,2.80
2018-12-11T15:22:17.841Z,2.80
2018-12-11T15:24:45.975Z,2.90
2018-12-11T15:27:14.132Z,2.80
2018-12-11T15:29:42.407Z,2.70
2018-12-11T15:32:11.162Z,2.60
2018-12-11T15:34:39.354Z,2.50
2018-12-11T15:37:07.558Z,2.40
2018-12-11T15:39:36.174Z,2.40
2018-12-11T15:42:04.910Z,2.40
2018-12-11T15:44:33.134Z,2.30
2018-12-11T15:47:02.930Z,2.30
2018-12-11T15:49:31.076Z,2.20
2018-12-11T15:51:59.207Z,2.20
2018-12-11T15:54:27.370Z,2.20
2018-12-11T15:56:56.208Z,2.20
2018-12-11T15:59:24.720Z,2.20
2018-12-11T16:01:53.023Z,2.20
2018-12-11T16:04:21.170Z,2.10
2018-12-11T16:06:49.278Z,2.10
2018-12-11T16:09:19.461Z,2.10
2018-12-11T16:11:48.047Z,2.10
2018-12-11T16:14:16.332Z,2.10
2018-12-11T16:16:44.578Z,2.10
2018-12-11T16:19:13.163Z,2.10
2018-12-11T16:21:41.334Z,2.10
2018-12-11T16:24:09.527Z,2.10
2018-12-11T16:26:37.804Z,2.00
2018-12-11T16:29:06.707Z,2.00
2018-12-11T16:31:34.955Z,2.00
2018-12-11T16:34:05.279Z,1.90
2018-12-11T16:36:33.507Z,2.00
2018-12-11T16:39:05.570Z,1.90
2018-12-11T16:41:33.834Z,1.90
2018-12-11T16:44:05.205Z,2.00
2018-12-11T16:46:33.459Z,1.90
2018-12-11T16:49:05.619Z,1.90
2018-12-11T16:51:33.898Z,1.90
2018-12-11T16:54:04.751Z,1.90
2018-12-11T16:56:32.928Z,1.90
2018-12-11T16:59:04.854Z,1.90
2018-12-11T17:01:32.975Z,1.90
2018-12-11T17:04:05.547Z,1.90
2018-12-11T17:06:33.742Z,1.90
2018-12-11T17:09:03.791Z,1.90
2018-12-11T17:11:31.938Z,1.90
2018-12-11T17:14:00.088Z,1.90
2018-12-11T17:16:28.994Z,1.90
2018-12-11T17:18:57.226Z,1.90
2018-12-11T17:21:25.427Z,1.90
2018-12-11T17:23:53.952Z,2.00
2018-12-11T17:26:22.095Z,2.00
2018-12-11T17:28:51.275Z,2.00
2018-12-11T17:31:19.458Z,2.10
2018-12-11T17:33:47.699Z,2.20
2018-12-11T17:36:17.375Z,2.30
2018-12-11T17:38:45.583Z,2.30
2018-12-11T17:41:13.850Z,2.40
2018-12-11T17:43:41.995Z,2.50
2018-12-11T17:46:10.187Z,2.60
2018-12-11T17:48:41.550Z,2.50
2018-12-11T17:51:08.783Z,2.60
2018-12-11T17:53:37.291Z,2.60
2018-12-11T17:56:06.998Z,2.60
2018-12-11T17:58:35.187Z,2.60
2018-12-11T18:01:08.046Z,2.60
2018-12-11T18:03:36.235Z,2.70
2018-12-11T18:06:06.646Z,2.80
2018-12-11T18:08:34.919Z,2.80
2018-12-11T18:11:05.001Z,2.80
2018-12-11T18:13:33.174Z,2.80
2018-12-11T18:16:05.618Z,2.80
2018-12-11T18:18:33.853Z,2.90
2018-12-11T18:21:05.576Z,2.80
2018-12-11T18:23:34.202Z,2.80
2018-12-11T18:26:05.070Z,2.80
2018-12-11T18:28:33.302Z,2.80
2018-12-11T18:31:04.867Z,2.80
2018-12-11T18:33:33.059Z,2.80
2018-12-11T18:36:02.962Z,2.80
2018-12-11T18:38:31.170Z,2.80
2018-12-11T18:40:59.337Z,2.80
2018-12-11T18:43:27.503Z,2.90
2018-12-11T18:45:55.734Z,2.80
2018-12-11T18:48:23.920Z,2.80
2018-12-11T18:50:53.062Z,2.80
2018-12-11T18:53:21.355Z,2.80
2018-12-11T18:55:49.542Z,2.80
2018-12-11T18:58:17.769Z,2.80
2018-12-11T19:00:46.227Z,2.80
2018-12-11T19:03:15.042Z,2.80
2018-12-11T19:05:43.308Z,2.90
2018-12-11T19:08:11.566Z,2.90
2018-12-11T19:10:40.642Z,2.90
2018-12-11T19:13:08.795Z,2.90
2018-12-11T19:15:37.107Z,2.90
2018-12-11T19:18:05.395Z,2.90
2018-12-11T19:20:33.638Z,2.90
2018-12-11T19:23:10.772Z,3.00
2018-12-11T19:25:39.014Z,3.00
2018-12-11T19:28:07.240Z,2.90
2018-12-11T19:30:35.398Z,2.90
2018-12-11T19:33:04.931Z,2.90
2018-12-11T19:35:33.276Z,2.90
2018-12-11T19:38:02.456Z,2.90
2018-12-11T19:40:30.741Z,3.00
2018-12-11T19:42:58.920Z,3.00
2018-12-11T19:45:27.276Z,2.90
2018-12-11T19:47:56.207Z,2.90
2018-12-11T19:50:24.451Z,2.90
2018-12-11T19:52:52.605Z,2.90
2018-12-11T19:55:20.808Z,2.90
2018-12-11T19:57:48.996Z,2.90
2018-12-11T20:00:17.884Z,2.90
2018-12-11T20:02:46.039Z,3.00
2018-12-11T20:05:14.643Z,3.10
2018-12-11T20:07:44.403Z,3.20
2018-12-11T20:10:16.432Z,3.20
2018-12-11T20:12:44.773Z,3.20
2018-12-11T20:15:13.109Z,3.20
2018-12-11T20:17:41.279Z,3.30
2018-12-11T20:20:21.596Z,3.20
2018-12-11T20:22:49.899Z,3.30
2018-12-11T20:25:19.062Z,3.40
2018-12-11T20:27:47.361Z,3.30
2018-12-11T20:30:15.624Z,3.40
2018-12-11T20:32:44.795Z,3.40
2018-12-11T20:35:13.043Z,3.40
2018-12-11T20:37:42.288Z,3.40
2018-12-11T20:40:10.595Z,3.40
2018-12-11T20:42:39.795Z,3.40
2018-12-11T20:45:08.108Z,3.40
2018-12-11T20:47:37.039Z,3.50
2018-12-11T20:50:06.320Z,3.60
2018-12-11T20:52:34.507Z,3.60
2018-12-11T20:55:07.031Z,3.50
2018-12-11T20:57:36.264Z,3.40
2018-12-11T21:00:06.388Z,3.30
2018-12-11T21:02:34.869Z,3.10
2018-12-11T21:05:08.815Z,3.10
2018-12-11T21:07:38.168Z,3.20
2018-12-11T21:10:09.131Z,3.20
2018-12-11T21:12:38.314Z,3.20
2018-12-11T21:15:09.544Z,3.10
2018-12-11T21:17:37.731Z,3.20
2018-12-11T21:20:07.943Z,3.20
2018-12-11T21:22:37.102Z,3.10
2018-12-11T21:25:05.543Z,3.10
2018-12-11T21:27:34.110Z,3.20
2018-12-11T21:30:08.273Z,3.20
2018-12-11T21:32:36.536Z,3.30
2018-12-11T21:35:06.783Z,3.30
2018-12-11T21:37:34.983Z,3.20
2018-12-11T21:40:06.143Z,3.20
2018-12-11T21:42:34.337Z,3.20
2018-12-11T21:45:06.326Z,3.30
2018-12-11T21:47:35.598Z,3.30
2018-12-11T21:50:05.511Z,3.30
2018-12-11T21:52:33.710Z,3.30
2018-12-11T21:55:06.687Z,3.40
2018-12-11T21:57:34.888Z,3.50
2018-12-11T22:00:09.660Z,3.50
2018-12-11T22:02:38.042Z,3.60
2018-12-11T22:05:06.350Z,3.50
2018-12-11T22:07:34.562Z,3.50
2018-12-11T22:10:06.553Z,3.60
2018-12-11T22:12:35.235Z,3.60
2018-12-11T22:15:06.958Z,3.70
2018-12-11T22:17:35.143Z,3.60
2018-12-11T22:20:07.974Z,3.70
2018-12-11T22:22:36.735Z,3.70
2018-12-11T22:25:09.054Z,3.70
2018-12-11T22:27:44.859Z,3.60
2018-12-11T22:30:14.094Z,3.70
2018-12-11T22:32:54.622Z,3.70
2018-12-11T22:35:27.375Z,3.80
2018-12-11T22:37:55.555Z,3.80
2018-12-11T22:40:25.862Z,3.70
2018-12-11T22:42:54.049Z,3.70
2018-12-11T22:45:22.841Z,3.70
2018-12-11T22:47:51.082Z,3.70
2018-12-11T22:50:19.235Z,3.80
2018-12-11T22:52:48.073Z,3.80
2018-12-11T22:55:16.478Z,3.80
2018-12-11T22:57:45.070Z,3.80
2018-12-11T23:00:13.439Z,3.80
2018-12-11T23:02:41.835Z,3.70
2018-12-11T23:05:10.152Z,3.70
2018-12-11T23:07:38.335Z,3.70
2018-12-11T23:10:06.632Z,3.60
2018-12-11T23:12:36.403Z,3.50
2018-12-11T23:15:06.658Z,3.60
2018-12-11T23:17:34.851Z,3.60
2018-12-11T23:20:04.318Z,3.50
2018-12-11T23:22:33.418Z,3.50
2018-12-11T23:25:05.022Z,3.40
2018-12-11T23:27:33.201Z,3.30
2018-12-11T23:30:04.559Z,3.10
2018-12-11T23:32:33.764Z,3.10
2018-12-11T23:35:02.957Z,3.10
2018-12-11T23:37:31.153Z,3.10
2018-12-11T23:39:59.350Z,3.10
2018-12-11T23:42:27.516Z,3.00
2018-12-11T23:44:55.723Z,3.00
2018-12-11T23:47:23.870Z,3.00
2018-12-11T23:49:52.023Z,3.00
2018-12-11T23:52:20.786Z,3.00
2018-12-11T23:54:49.358Z,3.00
2018-12-11T23:57:17.605Z,3.00
2018-12-11T23:59:45.722Z,3.10
